createdAt,value
2023-02-19T00:05:42.349Z,3.00
2023-02-19T00:10:53.482Z,3.10
2023-02-19T00:16:23.828Z,3.10
2023-02-19T00:27:35.026Z,3.20
2023-02-19T00:32:49.234Z,3.20
2023-02-19T00:43:48.268Z,3.20
2023-02-19T00:49:13.140Z,3.10
2023-02-19T00:54:32.528Z,3.10
2023-02-19T00:59:50.102Z,3.00
2023-02-19T01:05:38.441Z,3.10
2023-02-19T01:10:55.508Z,3.20
2023-02-19T01:16:48.754Z,3.10
2023-02-19T01:22:12.404Z,3.10
2023-02-19T01:27:37.425Z,3.20
2023-02-19T01:32:57.131Z,3.10
2023-02-19T01:38:18.832Z,3.10
2023-02-19T01:43:39.507Z,3.20
2023-02-19T01:49:31.366Z,3.10
2023-02-19T01:55:02.455Z,3.00
2023-02-19T02:00:33.791Z,3.00
2023-02-19T02:17:43.564Z,3.10
2023-02-19T02:23:42.706Z,3.20
2023-02-19T02:29:33.175Z,3.20
2023-02-19T02:35:27.639Z,3.20
2023-02-19T02:46:45.780Z,3.20
2023-02-19T02:58:35.839Z,3.30
2023-02-19T03:03:57.204Z,3.30
2023-02-19T03:15:37.582Z,3.10
2023-02-19T03:21:00.895Z,3.00
2023-02-19T03:26:53.271Z,2.80
2023-02-19T03:32:21.566Z,2.90
2023-02-19T03:37:59.319Z,2.90
2023-02-19T03:44:11.552Z,2.80
2023-02-19T03:50:15.377Z,2.70
2023-02-19T03:56:10.237Z,2.70
2023-02-19T04:01:55.006Z,2.70
2023-02-19T04:07:35.349Z,2.80
2023-02-19T04:13:46.301Z,2.80
2023-02-19T04:19:14.614Z,2.60
2023-02-19T04:30:49.915Z,2.50
2023-02-19T04:36:15.662Z,2.50
2023-02-19T04:41:57.671Z,2.40
2023-02-19T04:47:33.932Z,2.60
2023-02-19T04:53:41.682Z,2.60
2023-02-19T04:59:25.460Z,2.60
2023-02-19T05:16:11.278Z,2.60
2023-02-19T05:21:42.554Z,2.60
2023-02-19T05:27:08.653Z,2.60
2023-02-19T05:32:42.206Z,2.70
2023-02-19T05:38:10.518Z,2.80
2023-02-19T05:55:10.907Z,2.70
2023-02-19T06:00:53.690Z,2.70
2023-02-19T06:12:45.616Z,2.80
2023-02-19T06:18:22.642Z,2.80
2023-02-19T06:24:21.358Z,2.90
2023-02-19T06:29:52.549Z,2.80
2023-02-19T06:35:20.115Z,2.90
2023-02-19T06:40:42.142Z,3.00
2023-02-19T06:46:03.073Z,3.10
2023-02-19T06:57:37.480Z,3.20
2023-02-19T07:08:42.622Z,3.20
2023-02-19T07:20:04.169Z,3.40
2023-02-19T07:25:35.472Z,3.60
2023-02-19T07:31:12.976Z,4.00
2023-02-19T07:36:39.499Z,4.30
2023-02-19T07:41:58.835Z,4.60
2023-02-19T07:53:08.511Z,4.30
2023-02-19T07:58:59.325Z,4.10
2023-02-19T08:04:23.199Z,4.30
2023-02-19T08:10:15.098Z,4.00
2023-02-19T08:16:01.706Z,3.90
2023-02-19T08:21:36.659Z,4.00
2023-02-19T08:33:14.703Z,4.00
2023-02-19T08:38:49.125Z,4.10
2023-02-19T08:44:32.655Z,4.10
2023-02-19T08:55:57.268Z,4.30
2023-02-19T09:01:33.573Z,4.20
2023-02-19T09:06:59.696Z,4.00
2023-02-19T09:12:23.920Z,4.00
2023-02-19T09:17:47.857Z,4.00
2023-02-19T09:23:17.236Z,4.20
2023-02-19T09:28:45.517Z,4.60
2023-02-19T09:34:29.330Z,4.80
2023-02-19T09:39:39.786Z,4.80
2023-02-19T09:45:14.861Z,4.90
2023-02-19T09:51:33.571Z,4.90
2023-02-19T09:57:11.961Z,4.90
2023-02-19T10:08:46.144Z,4.80
2023-02-19T10:14:24.257Z,4.80
2023-02-19T10:19:45.117Z,4.90
2023-02-19T10:30:51.671Z,5.20
2023-02-19T10:42:39.381Z,5.20
2023-02-19T10:48:24.225Z,5.10
2023-02-19T10:54:25.653Z,5.00
2023-02-19T11:06:23.026Z,4.60
2023-02-19T11:11:57.054Z,5.30
2023-02-19T11:17:47.223Z,5.30
2023-02-19T11:24:01.169Z,5.20
2023-02-19T11:29:49.170Z,5.10
2023-02-19T11:41:30.643Z,4.80
2023-02-19T11:47:31.187Z,5.30
2023-02-19T11:53:51.357Z,5.30
2023-02-19T12:06:40.146Z,5.40
2023-02-19T12:12:33.391Z,5.50
2023-02-19T12:18:49.742Z,6.00
2023-02-19T12:24:49.749Z,6.30
2023-02-19T12:31:06.292Z,6.10
2023-02-19T12:36:55.544Z,5.80
2023-02-19T12:43:14.619Z,6.30
2023-02-19T12:49:15.151Z,6.40
2023-02-19T12:54:45.231Z,6.20
2023-02-19T13:06:40.368Z,6.30
2023-02-19T13:12:24.505Z,6.00
2023-02-19T13:18:24.660Z,5.70
2023-02-19T13:24:58.936Z,5.20
2023-02-19T13:31:11.905Z,5.90
2023-02-19T13:36:34.804Z,5.90
2023-02-19T13:42:05.400Z,5.60
2023-02-19T13:47:57.332Z,5.20
2023-02-19T13:59:46.755Z,5.00
2023-02-19T14:05:24.213Z,5.20
2023-02-19T14:11:14.327Z,5.10
2023-02-19T14:29:14.747Z,4.70
2023-02-19T14:40:16.507Z,4.70
2023-02-19T14:46:35.665Z,4.80
2023-02-19T14:52:15.424Z,4.80
2023-02-19T14:58:13.599Z,4.80
2023-02-19T15:03:58.445Z,4.60
2023-02-19T15:09:21.678Z,4.50
2023-02-19T15:15:12.461Z,4.60
2023-02-19T15:20:57.525Z,4.20
2023-02-19T15:26:47.705Z,3.80
2023-02-19T15:32:06.863Z,3.70
2023-02-19T15:37:36.925Z,3.80
2023-02-19T15:43:03.562Z,3.70
2023-02-19T15:55:22.992Z,3.90
2023-02-19T16:01:29.215Z,3.60
2023-02-19T16:19:04.502Z,3.00
2023-02-19T16:24:30.704Z,2.70
2023-02-19T16:30:31.039Z,2.60
2023-02-19T16:35:43.100Z,2.70
2023-02-19T16:41:43.675Z,2.70
2023-02-19T16:48:01.395Z,2.40
2023-02-19T16:53:42.930Z,2.40
2023-02-19T16:59:36.985Z,2.50
2023-02-19T17:05:30.676Z,2.20
2023-02-19T17:22:19.581Z,1.90
2023-02-19T17:27:34.995Z,1.70
2023-02-19T17:48:25.147Z,1.50
2023-02-19T18:04:43.120Z,1.30
2023-02-19T18:10:05.935Z,1.00
2023-02-19T18:15:32.258Z,0.70
2023-02-19T18:21:03.904Z,0.50
2023-02-19T18:26:17.246Z,0.60
2023-02-19T18:31:34.744Z,0.40
2023-02-19T18:36:48.123Z,0.40
2023-02-19T18:42:07.293Z,0.50
2023-02-19T18:47:40.650Z,0.40
2023-02-19T18:53:12.692Z,0.50
2023-02-19T18:58:41.695Z,0.30
2023-02-19T19:04:21.699Z,0.00
2023-02-19T19:09:48.025Z,-0.20
2023-02-19T19:20:08.659Z,-0.10
2023-02-19T19:30:39.055Z,0.10
2023-02-19T19:43:24.718Z,-0.30
2023-02-19T20:44:27.211Z,-0.40
2023-02-19T20:49:31.730Z,-0.40
2023-02-19T20:54:35.695Z,-0.50
2023-02-19T20:59:38.879Z,-0.60
2023-02-19T21:04:41.617Z,-0.70
2023-02-19T21:34:59.243Z,-1.00
2023-02-19T21:45:05.258Z,-0.90
2023-02-19T21:50:08.097Z,-1.20
2023-02-19T21:55:10.684Z,-1.10
2023-02-19T22:00:13.981Z,-1.20
2023-02-19T22:05:16.908Z,-1.00
2023-02-19T22:15:22.417Z,-0.60
2023-02-19T22:20:25.020Z,-0.30
2023-02-19T22:30:30.846Z,0.00
2023-02-19T22:35:33.319Z,0.20
2023-02-19T22:40:35.836Z,0.20
2023-02-19T22:45:38.424Z,0.40
2023-02-19T22:50:40.957Z,0.50
2023-02-19T23:00:46.671Z,0.70
2023-02-19T23:10:52.419Z,0.80
2023-02-19T23:15:54.871Z,0.90
2023-02-19T23:20:57.391Z,1.00
2023-02-19T23:26:00.267Z,1.00
2023-02-19T23:36:06.602Z,1.10
2023-02-19T23:41:11.547Z,1.10
2023-02-19T23:46:15.812Z,1.10
2023-02-19T23:51:18.663Z,1.20
2023-02-19T23:56:26.376Z,1.20
